Patuxent River Naval Air Station,Trapnell Field Aiport Patuxent River US
ICAO: KNHK
IATA: NHK
Category: Medium
Scheduled Services: No

Elevation: 39 ft
TransAlt. 18000 ft.

Airport Communications:
APP/DEP:120.05
ATIS:27.62
CLNC DEL:135.2
GND:120.6
BASE OPS:30.255
PMSV METRO:35.62
LEESBURG RDO:117.6
TWR:123.7

KNHK Zoom In..

If Map Doesn't Load, Click Here

Runways:

(A) RW 02 length 5021 ft width 75 ft
---- / hdg 18

(B) RW 06 length 11807 ft width 200 ft
---- / hdg 59

(C) RW 14 length 9742 ft width 200 ft
---- / hdg 136

(D) RW 20 length 5021 ft width 75 ft
---- / hdg 198

(E) RW 24 length 11807 ft width 200 ft
---- / hdg 239

(F) RW 32 length 9742 ft width 200 ft
---- / hdg 316

Location; KNHK
Day. 23 / Time. 21.05 Zulu
* Altimeter: 30.15
* Temperature: 19° c. 66.2°f.
* Wind from: 040° Speed 11 kn.
Dewpoint: 17° c.
Visibility: 3 Statute Miles.
Clouds: Broken 1000 ft.
Clouds: Overcast 2000 ft.
Conditions: Light Rain.Conditions: Mist.

KNHK 232105Z 04011KT 3SM -RA BR BKN010 OVC020 19/17 A3015 RMK AO2 P0001 T01890167


Wind From 040°
Speed 11 kn.

 
 
jpsmedia.com for Web Design worldairports.se 2018   terms of use